Skip to Main Content
SEARCH:
Location Air RH Dwp Precip Type Wind Speed Wind Gust Direction Pavement Temperature Date/Time
Hatem Bridge US 40 E/B 57 97 57 None 8 mph 12 mph E 59 - 59 5/30/2017 7:02:00 AM
I-270 at I-370 59 97 59 None Calm 4 mph SE 64 - 65 5/30/2017 7:00:00 AM
I-270 at MD-109 60 100 60 None Calm 6 mph SE 66 - 68 5/30/2017 7:00:00 AM
I-495 at American Legion Bridge - - - No Data Available - - No Data Available -
I-68 at MD-219 59 78 53 None 9 mph 13 mph S 61 - 62 5/30/2017 7:00:00 AM
I-68 at Savage Mt 58 86 54 None Calm 5 mph W 59 - 59 5/30/2017 7:00:00 AM
I-68 at Sideling Hill 63 100 63 None Calm Calm SE 67 - 67 5/30/2017 7:00:00 AM
I-68 at WV Line 53 97 52 None Calm 4 mph NW 60 - 61 5/30/2017 7:00:00 AM
I-695 at I-83 58 95 56 None 4 mph 10 mph E 62 - 63 5/30/2017 7:00:00 AM
I-70 at Fred-Wash Co. - - - No Data Available - - No Data Available -
I-70 at I-695 58 98 58 None 4 mph 10 mph E 61 - 67 5/30/2017 7:00:00 AM
I-70 at I-81 64 100 64 None 7 mph 13 mph SE 70 - 70 5/30/2017 7:00:00 AM
I-70 at MD-27 58 100 58 None Calm 8 mph SE 63 - 63 5/30/2017 7:00:00 AM
I-70 at MD-32 57 99 57 None Calm 8 mph E 62 - 63 5/30/2017 7:00:00 AM
I-83 at MD-137 57 100 57 None Calm 4 mph NE 62 - 62 5/30/2017 7:00:00 AM
I-95 at I-695 NE 59 92 57 None 4 mph 5 mph SE 62 - 65 5/30/2017 7:02:00 AM
I-95 at Patuxent River 59 100 59 None 4 mph 10 mph S 64 - 65 5/30/2017 7:00:00 AM
I-95 at Tydings Bridge 58 90 55 None 8 mph 14 mph E 61 - 62 5/30/2017 7:00:00 AM
I-95/495 at I-295 63 89 60 None 6 mph 12 mph SE 68 - 69 5/30/2017 7:00:00 AM
I-97 at MD-100 59 95 58 None 4 mph 10 mph E 64 - 64 5/30/2017 7:00:00 AM
I-97 at MD-32 58 96 57 None 9 mph 14 mph NE 64 - 65 5/30/2017 7:00:00 AM
MD 20 at MD 21 59 91 56 None Calm 7 mph SE 66 - 66 5/30/2017 7:00:00 AM
MD 231 at Patuxent River 62 96 61 None 6 mph 11 mph SE 66 - 69 5/30/2017 7:00:00 AM
MD 260 at Cox Rd 61 90 58 None Calm 5 mph NE 70 - 70 5/30/2017 7:00:00 AM
MD-135 at Salt Dome 60 72 52 None 6 mph 11 mph SW 62 - 62 5/30/2017 7:00:00 AM
MD-140 at MD-97 56 100 56 None 5 mph 12 mph E 62 - 62 5/30/2017 7:00:00 AM
MD-200 EB at Bonifant Rd 58 99 58 None Calm 6 mph SE 63 - 64 5/30/2017 7:02:00 AM
MD-200 WB at Muncaster Mill Rd 59 96 58 None 6 mph 11 mph E 64 - 65 5/30/2017 7:02:00 AM
MD-213 at Sassafras River 59 97 59 None Calm 6 mph SE 65 - 65 5/30/2017 7:00:00 AM
MD-24 at Rock St Park 58 100 58 None Calm Calm N 61 - 61 5/30/2017 7:00:00 AM
MD-30 at PA Line 56 100 56 None Calm 9 mph SE 62 - 62 5/30/2017 7:00:00 AM
MD-301 at MD-305 58 91 56 None 7 mph 11 mph E 65 - 66 5/30/2017 7:00:00 AM
MD-33 at Knapps Narrows Drawbridge 60 91 58 None 8 mph 14 mph E 69 - 69 5/30/2017 7:00:00 AM
MD-344 at MD-224 64 94 63 None Calm Calm N 72 - 72 5/30/2017 7:00:00 AM
MD-4 at Patuxent River 63 98 63 None - - No Data Available 65 - 68 5/30/2017 7:00:00 AM
MD-404 at Choptank River - - - No Data Available - - No Data Available -
MD-43 at MD-150 60 95 58 None 7 mph 12 mph E 64 - 65 5/30/2017 7:00:00 AM
MD-51 at Oldtown Salt Dome 56 100 56 None Calm Calm E 65 - 65 5/30/2017 7:00:00 AM
MD-64 at MD-418 62 92 60 None Calm Calm SE 69 - 70 5/30/2017 7:00:00 AM
US-1 at Baltimore / Harford Co. Line 58 96 56 None Calm 9 mph N 61 - 62 5/30/2017 7:00:00 AM
US-1 at Conowingo Dam 58 100 58 None Calm Calm E 62 - 62 5/30/2017 7:00:00 AM
US-13 at US-113 60 97 59 None 4 mph 7 mph SE 65 - 65 5/30/2017 7:00:00 AM
US-13 at US-50 - - - No Data Available - - No Data Available -
US-15 at MD-140 58 98 58 None Calm 7 mph E 64 - 64 5/30/2017 7:00:00 AM
US-301 at MD-5 61 99 61 None Calm 7 mph NE 69 - 70 5/30/2017 7:00:00 AM
US-301 at Potomac 65 95 63 None Calm 8 mph E 67 - 71 5/30/2017 7:00:00 AM
US-301 on HWN Bridge 63 96 62 None 8 mph 10 mph E 68 - 68 5/30/2017 7:02:00 AM
US-340 at MD-180 60 97 59 None 4 mph 12 mph SE 66 - 67 5/30/2017 7:00:00 AM
US-50 at Choptank 58 100 58 None 6 mph 12 mph E 62 - 63 5/30/2017 7:00:00 AM
US-50 at I-95 61 97 60 None Calm 4 mph NE 66 - 68 5/30/2017 7:00:00 AM
US-50 at MD-2 59 97 59 None Calm 6 mph SE 65 - 68 5/30/2017 7:00:00 AM
US-50 at MD-331 60 94 59 None 6 mph 11 mph E 62 - 62 5/30/2017 7:00:00 AM
US-50 at OC Drawbridge 60 100 60 None 6 mph 9 mph E 63 - 63 5/30/2017 7:00:00 AM
US-50 at Table Rock Rd 58 82 53 None Calm 10 mph SW 61 - 61 5/30/2017 7:00:00 AM
US-50 Kent Narrow Bridge 59 98 59 None 6 mph 12 mph E 64 - 66 5/30/2017 7:00:00 AM
WPL Pier 31 58 94 57 None 8 mph 12 mph SE 64 - 64 5/30/2017 7:02:00 AM
Location Air RH Dwp Precip Type Wind Speed Wind Gust Direction Pavement Temperature Date/Time